Time;durP1;ratioP1;P1;durP2;ratioP2;P2;SDS_P1;SDS_P2;PMS_P1;PMS_P2;Temp;Humidity;BMP_temperature;BMP_pressure;BME280_temperature;BME280_humidity;BME280_pressure;Samples;Min_cycle;Max_cycle;Signal;HPM_P1;HPM_P2
2023/10/19 00:01:29;;;;;;;2.65;2.55;;;10.80;99.90;;;;;;4989229;28;20030;-75
2023/10/19 00:03:57;;;;;;;0.13;0.13;;;10.80;99.90;;;;;;5015424;28;20102;-75
2023/10/19 00:06:23;;;;;;;0.20;0.20;;;10.80;99.90;;;;;;5046843;28;20025;-75
2023/10/19 00:08:52;;;;;;;0.20;0.20;;;10.80;99.90;;;;;;5049818;28;20888;-75
2023/10/19 00:11:21;;;;;;;0.10;0.10;;;10.80;99.90;;;;;;5052485;28;20027;-75
2023/10/19 00:13:57;;;;;;;4.75;4.47;;;10.80;99.90;;;;;;5044208;28;20045;-76
2023/10/19 00:16:35;;;;;;;0.20;0.20;;;10.80;99.90;;;;;;5051223;28;20277;-76
2023/10/19 00:19:03;;;;;;;0.10;0.10;;;10.80;99.90;;;;;;5044458;28;20041;-75
2023/10/19 00:21:29;;;;;;;1.13;1.13;;;10.80;99.90;;;;;;5050915;28;20532;-76
2023/10/19 00:24:04;;;;;;;0.20;0.20;;;10.80;99.90;;;;;;5047269;28;20569;-76
2023/10/19 00:26:31;;;;;;;1.08;1.08;;;10.80;99.90;;;;;;5044056;28;20033;-76
2023/10/19 00:28:57;;;;;;;4.68;4.47;;;10.80;99.90;;;;;;5043727;28;20029;-76
2023/10/19 00:31:27;;;;;;;1.45;1.45;;;10.90;99.90;;;;;;5047427;28;20043;-76
2023/10/19 00:34:00;;;;;;;0.15;0.15;;;10.90;99.90;;;;;;5051301;28;20056;-76
2023/10/19 00:36:39;;;;;;;0.30;0.30;;;10.90;99.90;;;;;;5052185;28;20070;-76
2023/10/19 00:39:14;;;;;;;0.20;0.20;;;10.90;99.90;;;;;;5075836;28;20025;-76
2023/10/19 00:41:42;;;;;;;1.20;1.20;;;10.90;99.90;;;;;;5089641;28;20016;-77
2023/10/19 00:44:12;;;;;;;10.77;10.05;;;10.90;99.90;;;;;;5072975;28;20050;-76
2023/10/19 00:49:13;;;;;;;0.15;0.15;;;12.20;99.90;;;;;;5092034;28;20028;-76
2023/10/19 00:54:26;;;;;;;0.28;0.28;;;10.90;99.90;;;;;;5088146;28;20550;-77
2023/10/19 00:56:58;;;;;;;5.82;5.28;;;10.80;99.90;;;;;;5090705;28;20028;-77
2023/10/19 00:59:30;;;;;;;0.20;0.20;;;10.80;99.90;;;;;;5080771;28;20023;-77
2023/10/19 01:05:04;;;;;;;3.80;3.60;;;10.70;99.90;;;;;;5087995;28;20017;-77
2023/10/19 01:07:46;;;;;;;10.18;9.60;;;10.80;99.90;;;;;;5070675;28;20261;-76
2023/10/19 01:10:20;;;;;;;0.20;0.20;;;11.20;99.90;;;;;;5089291;28;20039;-76
2023/10/19 01:12:46;;;;;;;0.10;0.10;;;10.60;99.90;;;;;;5090650;28;20020;-76
2023/10/19 01:15:20;;;;;;;0.22;0.22;;;10.70;99.90;;;;;;5090593;28;20173;-76
2023/10/19 01:17:52;;;;;;;0.88;0.85;;;10.70;99.90;;;;;;5089568;28;20497;-76
2023/10/19 01:31:08;;;;;;;0.15;0.15;;;10.70;99.90;;;;;;5089648;28;20024;-76
2023/10/19 01:33:34;;;;;;;0.68;0.68;;;10.60;99.90;;;;;;5086255;28;20044;-77
2023/10/19 01:38:47;;;;;;;0.20;0.20;;;10.60;99.90;;;;;;5088779;28;20039;-76
2023/10/19 01:41:14;;;;;;;0.38;0.38;;;10.50;99.90;;;;;;5088436;28;20020;-75
2023/10/19 01:43:46;;;;;;;1.77;1.75;;;12.40;99.90;;;;;;5092682;28;20324;-77
2023/10/19 01:46:13;;;;;;;0.20;0.20;;;10.50;99.90;;;;;;5087475;28;20024;-76
2023/10/19 01:48:40;;;;;;;0.20;0.20;;;10.60;99.90;;;;;;5087744;28;20024;-76
2023/10/19 01:51:13;;;;;;;0.20;0.20;;;10.50;99.90;;;;;;5068977;28;20089;-76
2023/10/19 01:53:44;;;;;;;0.63;0.63;;;10.50;99.90;;;;;;5088558;28;20078;-76
2023/10/19 01:56:12;;;;;;;0.20;0.20;;;10.50;99.90;;;;;;5089195;28;20286;-76
2023/10/19 01:58:41;;;;;;;0.20;0.20;;;10.40;99.90;;;;;;5086664;28;20426;-77
2023/10/19 02:01:29;;;;;;;0.20;0.20;;;10.40;99.90;;;;;;5085525;28;20016;-77
2023/10/19 02:04:00;;;;;;;0.20;0.20;;;10.40;99.90;;;;;;5086420;28;20062;-76
2023/10/19 02:09:09;;;;;;;0.20;0.20;;;10.40;99.90;;;;;;5086283;28;20016;-76
2023/10/19 02:11:41;;;;;;;0.30;0.30;;;11.10;99.90;;;;;;5090343;28;20077;-76
2023/10/19 02:14:15;;;;;;;0.20;0.20;;;10.00;99.90;;;;;;5088887;28;20025;-76
2023/10/19 02:16:43;;;;;;;;;;;10.50;99.90;;;;;;5070431;28;20048;-76
2023/10/19 02:19:10;;;;;;;0.30;0.30;;;10.50;99.90;;;;;;5087575;28;20528;-76
2023/10/19 02:21:39;;;;;;;0.95;0.95;;;10.40;99.90;;;;;;5088986;28;20297;-76
2023/10/19 02:24:14;;;;;;;0.10;0.10;;;10.40;99.90;;;;;;5084212;28;20028;-76
2023/10/19 02:26:40;;;;;;;0.10;0.10;;;10.30;99.90;;;;;;5085034;28;20115;-76
2023/10/19 02:29:09;;;;;;;0.15;0.15;;;10.40;99.90;;;;;;5086128;28;20026;-77
2023/10/19 02:31:37;;;;;;;0.45;0.45;;;10.30;99.90;;;;;;5085109;28;20573;-76
2023/10/19 02:34:04;;;;;;;0.20;0.20;;;11.00;99.90;;;;;;5083232;28;20024;-76
2023/10/19 02:36:32;;;;;;;0.10;0.10;;;10.30;99.90;;;;;;5088111;28;20093;-76
2023/10/19 02:39:07;;;;;;;0.20;0.20;;;10.40;99.90;;;;;;5084582;28;20505;-76
2023/10/19 02:41:41;;;;;;;0.10;0.10;;;10.30;99.90;;;;;;5085945;28;20120;-76
2023/10/19 02:46:46;;;;;;;0.25;0.25;;;10.30;99.90;;;;;;5087421;28;20020;-76
2023/10/19 02:49:18;;;;;;;0.10;0.10;;;10.30;99.90;;;;;;5068743;28;20521;-76
2023/10/19 02:51:44;;;;;;;0.22;0.22;;;10.00;99.90;;;;;;5069344;28;20490;-76
2023/10/19 02:54:22;;;;;;;0.10;0.10;;;10.30;99.90;;;;;;5086652;28;20059;-77
2023/10/19 02:56:53;;;;;;;0.10;0.10;;;10.20;99.90;;;;;;5089023;28;20089;-76
2023/10/19 02:59:25;;;;;;;0.10;0.10;;;10.20;99.90;;;;;;5088662;28;20104;-75
2023/10/19 03:02:17;;;;;;;0.10;0.10;;;10.30;99.90;;;;;;5073079;28;20020;-76
2023/10/19 03:04:44;;;;;;;0.10;0.10;;;10.30;99.90;;;;;;5091206;28;20020;-75
2023/10/19 03:07:12;;;;;;;1.98;1.88;;;10.30;99.90;;;;;;5090055;28;20020;-76
2023/10/19 03:09:48;;;;;;;0.57;0.57;;;10.30;99.90;;;;;;5092351;28;20594;-76
2023/10/19 03:12:14;;;;;;;0.10;0.10;;;10.20;99.90;;;;;;5070945;28;20027;-76
2023/10/19 03:14:41;;;;;;;0.10;0.10;;;10.60;99.90;;;;;;5092298;28;20032;-76
2023/10/19 03:17:08;;;;;;;0.28;0.28;;;10.20;99.90;;;;;;5088901;28;20024;-76
2023/10/19 03:19:38;;;;;;;0.20;0.20;;;11.70;99.90;;;;;;5093077;28;20137;-76
2023/10/19 03:22:06;;;;;;;0.20;0.20;;;10.20;99.90;;;;;;5092083;28;20024;-76
2023/10/19 03:24:42;;;;;;;0.20;0.20;;;10.20;99.90;;;;;;5092129;28;20036;-76
2023/10/19 03:27:18;;;;;;;0.20;0.20;;;10.20;99.90;;;;;;5070829;28;20024;-77
2023/10/19 03:29:47;;;;;;;0.10;0.10;;;10.60;99.90;;;;;;5091188;28;20534;-76
2023/10/19 03:32:16;;;;;;;0.57;0.57;;;9.70;99.90;;;;;;5090931;28;20040;-76
2023/10/19 03:34:47;;;;;;;0.20;0.20;;;10.20;99.90;;;;;;5091589;28;20020;-76
2023/10/19 03:37:15;;;;;;;0.22;0.22;;;10.20;99.90;;;;;;5092111;28;20024;-76
2023/10/19 03:39:45;;;;;;;0.20;0.20;;;10.20;99.90;;;;;;5092703;28;20023;-76
2023/10/19 03:42:14;;;;;;;2.75;2.65;;;10.20;99.90;;;;;;5090555;28;20039;-76
2023/10/19 03:44:53;;;;;;;0.20;0.20;;;10.20;99.90;;;;;;5072718;28;20032;-76
2023/10/19 03:47:20;;;;;;;0.10;0.10;;;10.20;99.90;;;;;;5091715;28;20016;-76
2023/10/19 03:49:50;;;;;;;0.10;0.10;;;10.10;99.90;;;;;;5091380;28;20103;-76
2023/10/19 03:54:42;;;;;;;4.38;4.10;;;9.90;99.90;;;;;;5094755;28;20020;-76
2023/10/19 03:57:16;;;;;;;1.15;1.15;;;9.90;99.90;;;;;;5092465;28;20040;-76
2023/10/19 03:59:44;;;;;;;1.05;1.05;;;9.90;99.90;;;;;;5091804;28;20098;-76
2023/10/19 04:02:13;;;;;;;3.95;3.80;;;9.90;99.90;;;;;;5091263;28;20020;-75
2023/10/19 04:04:48;;;;;;;0.10;0.10;;;9.90;99.90;;;;;;5089342;28;20115;-76
2023/10/19 04:07:20;;;;;;;13.48;12.00;;;9.80;99.90;;;;;;5088072;28;20030;-76
2023/10/19 04:12:30;;;;;;;0.10;0.10;;;9.70;99.90;;;;;;5095426;28;20627;-76
2023/10/19 04:15:17;;;;;;;0.20;0.20;;;9.80;99.90;;;;;;5094277;28;20073;-76
2023/10/19 04:17:46;;;;;;;0.17;0.17;;;8.00;99.90;;;;;;5089358;28;20036;-76
2023/10/19 04:20:28;;;;;;;0.10;0.10;;;9.70;99.90;;;;;;5094308;28;20024;-76
2023/10/19 04:22:54;;;;;;;0.10;0.10;;;9.60;99.90;;;;;;5072422;28;20039;-76
2023/10/19 04:25:29;;;;;;;0.15;0.15;;;9.60;99.90;;;;;;5092661;28;20505;-76
2023/10/19 04:27:57;;;;;;;1.92;1.85;;;9.60;99.90;;;;;;5089494;28;20295;-75
2023/10/19 04:30:23;;;;;;;10.65;10.18;;;9.50;99.90;;;;;;5070669;28;20453;-76
2023/10/19 04:32:50;;;;;;;0.10;0.10;;;9.60;99.90;;;;;;5071756;28;20653;-75
2023/10/19 04:35:22;;;;;;;2.08;1.98;;;9.60;99.90;;;;;;5071768;28;20040;-76
2023/10/19 04:37:52;;;;;;;0.17;0.17;;;9.60;99.90;;;;;;5092733;28;20035;-76
2023/10/19 04:40:19;;;;;;;0.10;0.10;;;9.60;99.90;;;;;;5051876;28;20119;-76
2023/10/19 04:42:46;;;;;;;0.20;0.20;;;10.20;99.90;;;;;;5085930;28;20103;-76
2023/10/19 04:45:15;;;;;;;0.20;0.20;;;9.50;99.90;;;;;;5092250;28;20016;-76
2023/10/19 04:47:41;;;;;;;0.28;0.28;;;9.50;99.90;;;;;;5092196;28;20021;-77
2023/10/19 04:50:07;;;;;;;6.07;5.82;;;9.50;99.90;;;;;;5090439;28;20041;-76
2023/10/19 04:52:36;;;;;;;0.15;0.15;;;9.50;99.90;;;;;;5095826;28;20020;-76
2023/10/19 04:55:02;;;;;;;1.10;1.10;;;9.50;99.90;;;;;;5091961;28;20036;-76
2023/10/19 04:57:31;;;;;;;0.85;0.85;;;9.50;99.90;;;;;;5089867;28;20043;-76
2023/10/19 05:00:00;;;;;;;1.05;1.05;;;9.40;99.90;;;;;;5090308;28;20252;-76
2023/10/19 05:02:28;;;;;;;0.20;0.20;;;9.30;99.90;;;;;;5089751;28;20148;-76
2023/10/19 05:04:53;;;;;;;0.20;0.20;;;9.70;99.90;;;;;;5090149;28;20066;-76
2023/10/19 05:07:20;;;;;;;0.10;0.10;;;9.40;99.90;;;;;;5092183;28;20023;-76
2023/10/19 05:09:46;;;;;;;9.23;8.60;;;9.30;99.90;;;;;;5085508;28;20281;-76
2023/10/19 05:12:14;;;;;;;0.10;0.10;;;9.30;99.90;;;;;;5085146;28;20052;-75
2023/10/19 05:14:42;;;;;;;0.10;0.10;;;9.30;99.90;;;;;;5084125;28;20082;-76
2023/10/19 05:17:12;;;;;;;0.20;0.20;;;9.30;99.90;;;;;;5082296;28;20032;-76
2023/10/19 05:19:39;;;;;;;0.10;0.10;;;9.40;99.90;;;;;;5081965;28;20079;-76
2023/10/19 05:22:12;;;;;;;0.40;0.40;;;9.40;99.90;;;;;;5068202;28;20525;-76
2023/10/19 05:24:42;;;;;;;0.10;0.10;;;9.40;99.90;;;;;;5098974;28;20100;-77
2023/10/19 05:27:11;;;;;;;0.68;0.68;;;9.40;99.90;;;;;;5095526;28;20046;-76
2023/10/19 05:29:37;;;;;;;0.30;0.30;;;9.40;99.90;;;;;;5088410;28;20039;-76
2023/10/19 05:32:06;;;;;;;0.10;0.10;;;9.00;99.90;;;;;;5086233;28;20121;-76
2023/10/19 05:34:34;;;;;;;0.10;0.10;;;9.80;99.90;;;;;;5085803;28;20680;-76
2023/10/19 05:37:02;;;;;;;0.40;0.40;;;9.40;99.90;;;;;;5093619;28;20081;-76
2023/10/19 05:39:31;;;;;;;0.10;0.10;;;9.40;99.90;;;;;;5085530;28;20051;-76
2023/10/19 05:42:00;;;;;;;0.77;0.77;;;9.30;99.90;;;;;;5085386;28;20316;-76
2023/10/19 05:44:30;;;;;;;0.13;0.13;;;9.30;99.90;;;;;;5087916;28;20305;-76
2023/10/19 05:46:56;;;;;;;0.20;0.20;;;9.40;99.90;;;;;;5091030;28;20047;-76
2023/10/19 05:49:23;;;;;;;0.10;0.10;;;9.30;99.90;;;;;;5093392;28;20092;-77
2023/10/19 05:51:51;;;;;;;0.10;0.10;;;9.40;99.90;;;;;;5088958;28;20077;-76
2023/10/19 05:54:17;;;;;;;0.10;0.10;;;9.40;99.90;;;;;;5091027;28;20107;-76
2023/10/19 05:56:45;;;;;;;0.30;0.30;;;9.50;99.90;;;;;;5083335;28;20644;-76
2023/10/19 05:59:11;;;;;;;0.20;0.20;;;9.60;99.90;;;;;;5085204;28;20028;-76
2023/10/19 06:01:37;;;;;;;0.38;0.38;;;;;;;;;;5085596;28;20316;-76
2023/10/19 06:04:07;;;;;;;6.03;5.78;;;9.80;99.90;;;;;;5091516;28;20023;-76
2023/10/19 06:06:33;;;;;;;0.63;0.63;;;9.90;99.90;;;;;;5089449;28;20024;-76
2023/10/19 06:09:02;;;;;;;0.25;0.25;;;10.00;99.90;;;;;;5089285;28;20027;-75
2023/10/19 06:11:42;;;;;;;0.10;0.10;;;10.10;99.90;;;;;;5087019;28;20042;-76
2023/10/19 06:14:09;;;;;;;0.10;0.10;;;10.20;99.90;;;;;;5087712;28;20087;-76
2023/10/19 06:16:35;;;;;;;2.15;2.08;;;10.40;99.90;;;;;;5083877;28;20032;-76
2023/10/19 06:19:02;;;;;;;0.17;0.17;;;10.50;99.90;;;;;;5087232;28;20274;-76
2023/10/19 06:21:27;;;;;;;0.60;0.60;;;10.50;99.90;;;;;;5091150;28;20082;-76
2023/10/19 06:23:55;;;;;;;2.38;2.28;;;10.60;99.90;;;;;;5084302;28;20024;-76
2023/10/19 06:26:21;;;;;;;0.30;0.30;;;10.70;99.90;;;;;;5086999;28;20536;-76
2023/10/19 06:28:47;;;;;;;18.98;7.00;;;10.80;99.90;;;;;;5087960;28;20500;-75
2023/10/19 06:31:15;;;;;;;0.30;0.30;;;10.80;99.90;;;;;;5093746;28;20016;-76
2023/10/19 06:33:41;;;;;;;0.38;0.38;;;10.90;99.90;;;;;;5092261;28;20040;-76
2023/10/19 06:36:07;;;;;;;0.20;0.20;;;11.00;99.90;;;;;;5090697;28;20023;-76
2023/10/19 06:38:34;;;;;;;0.10;0.10;;;11.00;99.90;;;;;;5068868;28;20036;-76
2023/10/19 06:41:03;;;;;;;0.80;0.80;;;11.10;99.90;;;;;;5085686;28;20016;-77
2023/10/19 06:43:30;;;;;;;2.90;2.80;;;11.20;99.90;;;;;;5089387;28;20096;-74
2023/10/19 06:46:00;;;;;;;0.10;0.10;;;11.20;99.90;;;;;;5091329;28;20017;-76
2023/10/19 06:48:30;;;;;;;0.75;0.75;;;11.30;99.90;;;;;;5085585;28;20026;-75
2023/10/19 06:50:56;;;;;;;0.10;0.10;;;11.90;99.90;;;;;;5089273;28;20030;-76
2023/10/19 06:53:22;;;;;;;1.00;1.00;;;10.90;99.90;;;;;;5088931;28;20088;-76
2023/10/19 06:55:54;;;;;;;0.20;0.20;;;11.50;99.90;;;;;;5087734;28;20028;-75
2023/10/19 06:58:26;;;;;;;0.20;0.20;;;11.50;99.90;;;;;;5089155;28;20692;-76
2023/10/19 07:01:05;;;;;;;8.57;8.02;;;11.50;99.90;;;;;;5089029;28;20020;-76
2023/10/19 07:03:31;;;;;;;0.28;0.28;;;11.60;99.90;;;;;;5087818;28;20462;-76
2023/10/19 07:06:02;;;;;;;2.28;2.17;;;11.70;99.90;;;;;;5090666;28;20258;-75
2023/10/19 07:08:32;;;;;;;0.35;0.35;;;11.60;99.90;;;;;;5086961;28;20300;-76
2023/10/19 07:11:01;;;;;;;2.10;1.95;;;12.10;99.90;;;;;;5091786;28;20017;-76
2023/10/19 07:13:34;;;;;;;1.98;1.88;;;11.80;99.90;;;;;;5093873;28;20383;-75
2023/10/19 07:16:09;;;;;;;0.20;0.20;;;12.00;99.90;;;;;;5087015;28;20032;-77
2023/10/19 07:18:39;;;;;;;2.85;2.75;;;12.20;99.90;;;;;;5091005;28;20589;-76
2023/10/19 07:21:09;;;;;;;0.20;0.20;;;12.20;99.90;;;;;;5092713;28;20035;-76
2023/10/19 07:23:40;;;;;;;0.20;0.20;;;12.30;99.90;;;;;;5087701;28;20016;-77
2023/10/19 07:26:14;;;;;;;3.63;3.42;;;12.30;99.90;;;;;;5086920;28;20028;-76
2023/10/19 07:28:39;;;;;;;;;;;13.40;99.90;;;;;;5084284;28;20057;-78
2023/10/19 07:31:12;;;;;;;0.10;0.10;;;12.60;99.90;;;;;;5086307;28;19904;-76
2023/10/19 07:33:42;;;;;;;1.88;1.77;;;12.70;99.90;;;;;;5090576;28;20166;-76
2023/10/19 07:36:14;;;;;;;0.30;0.30;;;13.20;99.90;;;;;;5067012;28;20510;-76
2023/10/19 07:38:42;;;;;;;1.65;1.60;;;13.80;99.90;;;;;;5080134;28;20027;-78
2023/10/19 07:41:09;;;;;;;0.10;0.10;;;13.90;99.90;;;;;;5078529;28;20012;-76
2023/10/19 07:43:35;;;;;;;0.70;0.70;;;14.30;99.90;;;;;;5080072;28;20571;-85
2023/10/19 07:46:01;;;;;;;0.47;0.47;;;14.60;99.90;;;;;;5079794;28;20106;-77
2023/10/19 07:48:27;;;;;;;0.10;0.10;;;15.00;99.90;;;;;;5079284;28;20687;-76
2023/10/19 07:50:53;;;;;;;0.10;0.10;;;15.50;99.90;;;;;;5079569;28;20028;-77
2023/10/19 07:53:19;;;;;;;0.10;0.10;;;15.90;99.90;;;;;;5079291;28;20024;-81
2023/10/19 07:55:45;;;;;;;0.10;0.10;;;16.10;99.90;;;;;;5079099;28;20092;-80
2023/10/19 07:58:11;;;;;;;0.25;0.25;;;16.30;99.90;;;;;;5079005;28;20036;-80
2023/10/19 08:00:38;;;;;;;0.10;0.10;;;16.60;99.90;;;;;;5079440;28;20012;-79
2023/10/19 08:03:05;;;;;;;0.10;0.10;;;16.80;99.90;;;;;;5078792;28;20512;-77
2023/10/19 08:05:33;;;;;;;0.10;0.10;;;16.90;99.90;;;;;;5080707;28;20666;-84
2023/10/19 08:08:00;;;;;;;0.10;0.10;;;16.50;99.90;;;;;;5079545;28;20023;-75
2023/10/19 08:10:29;;;;;;;0.10;0.10;;;17.30;99.90;;;;;;5079537;28;20066;-79
2023/10/19 08:12:55;;;;;;;0.20;0.20;;;17.30;99.90;;;;;;5081258;28;20008;-76
2023/10/19 08:15:21;;;;;;;0.20;0.20;;;17.20;99.90;;;;;;5081474;28;20130;-78
2023/10/19 08:17:53;;;;;;;0.10;0.10;;;15.60;99.90;;;;;;5080184;28;20032;-78
2023/10/19 08:20:30;;;;;;;0.10;0.10;;;14.70;99.90;;;;;;5081111;28;20043;-76
2023/10/19 08:22:57;;;;;;;0.10;0.10;;;16.70;99.90;;;;;;5080579;28;20024;-85
2023/10/19 08:25:27;;;;;;;0.10;0.10;;;16.60;99.90;;;;;;5060031;28;20028;-82
2023/10/19 08:27:56;;;;;;;0.10;0.10;;;16.50;99.90;;;;;;5078784;28;20086;-76
2023/10/19 08:30:23;;;;;;;0.10;0.10;;;16.60;99.90;;;;;;5081255;28;20024;-77
2023/10/19 08:32:51;;;;;;;0.10;0.10;;;16.50;99.90;;;;;;5080172;28;20052;-77
2023/10/19 08:35:24;;;;;;;0.10;0.10;;;16.60;99.90;;;;;;5081311;28;20016;-75
2023/10/19 08:37:53;;;;;;;0.65;0.65;;;16.70;99.90;;;;;;5079995;28;20032;-76
2023/10/19 08:40:21;;;;;;;0.52;0.52;;;16.70;99.90;;;;;;5078837;28;20082;-77
2023/10/19 08:42:48;;;;;;;0.10;0.10;;;16.70;99.90;;;;;;5078421;28;20448;-77
2023/10/19 08:45:16;;;;;;;0.10;0.10;;;16.80;99.90;;;;;;5078360;28;20017;-76
2023/10/19 08:47:52;;;;;;;0.10;0.10;;;17.00;99.90;;;;;;5059859;28;20605;-75
2023/10/19 08:50:23;;;;;;;0.10;0.10;;;17.10;99.90;;;;;;5069644;28;20317;-75
2023/10/19 08:52:54;;;;;;;0.10;0.10;;;17.30;99.90;;;;;;5077755;28;20008;-75
2023/10/19 08:55:20;;;;;;;0.30;0.30;;;17.30;99.90;;;;;;5059683;28;20342;-78
2023/10/19 08:57:51;;;;;;;0.20;0.20;;;17.40;99.90;;;;;;5077846;28;20332;-75
2023/10/19 09:00:19;;;;;;;0.10;0.10;;;17.40;99.90;;;;;;5078680;28;20514;-78
2023/10/19 09:02:45;;;;;;;0.10;0.10;;;17.50;99.90;;;;;;5059575;28;20036;-77
2023/10/19 09:05:25;;;;;;;0.10;0.10;;;17.60;99.90;;;;;;5079232;28;20027;-79
2023/10/19 09:07:55;;;;;;;0.10;0.10;;;17.70;99.90;;;;;;5078595;28;20107;-77
2023/10/19 09:10:24;;;;;;;0.10;0.10;;;17.80;99.90;;;;;;5077987;28;20153;-75
2023/10/19 09:13:04;;;;;;;0.10;0.10;;;17.90;99.90;;;;;;5077803;28;20270;-76
2023/10/19 09:15:32;;;;;;;0.10;0.10;;;18.10;99.90;;;;;;5077581;28;20012;-80
2023/10/19 09:18:11;;;;;;;0.10;0.10;;;18.20;99.90;;;;;;5060145;28;20095;-76
2023/10/19 09:20:37;;;;;;;0.10;0.10;;;18.20;99.90;;;;;;5077414;28;20106;-79
2023/10/19 09:23:03;;;;;;;0.10;0.10;;;18.30;99.90;;;;;;5077879;28;20020;-79
2023/10/19 09:25:29;;;;;;;0.10;0.10;;;18.40;99.90;;;;;;5077920;28;20085;-76
2023/10/19 09:27:55;;;;;;;0.10;0.10;;;18.10;99.90;;;;;;5078015;28;20097;-77
2023/10/19 09:30:23;;;;;;;0.10;0.10;;;18.60;99.90;;;;;;5077840;28;20042;-78
2023/10/19 09:32:50;;;;;;;0.10;0.10;;;16.20;99.90;;;;;;5077597;28;20068;-76
2023/10/19 09:35:19;;;;;;;0.10;0.10;;;19.00;99.90;;;;;;5058724;28;20120;-79
2023/10/19 09:37:45;;;;;;;0.10;0.10;;;19.00;99.90;;;;;;5078191;28;20055;-76
2023/10/19 09:40:12;;;;;;;0.10;0.10;;;19.20;99.90;;;;;;5077728;28;20351;-79
2023/10/19 09:42:45;;;;;;;0.10;0.10;;;18.20;99.90;;;;;;5077707;28;20398;-77
2023/10/19 09:45:12;;;;;;;;;;;19.70;99.90;;;;;;5078147;28;20085;-75
2023/10/19 09:47:46;;;;;;;0.10;0.10;;;19.90;99.90;;;;;;5077671;28;20184;-77
2023/10/19 09:50:12;;;;;;;0.65;0.65;;;;;;;;;;5077699;28;20292;-74
2023/10/19 09:52:39;;;;;;;0.10;0.10;;;20.00;99.90;;;;;;5077393;28;20166;-77
2023/10/19 09:55:13;;;;;;;0.63;0.63;;;20.10;99.90;;;;;;5077442;28;20020;-78
2023/10/19 09:58:17;;;;;;;0.10;0.10;;;20.00;99.90;;;;;;5077800;28;20399;-75
2023/10/19 10:00:49;;;;;;;;;;;20.00;99.90;;;;;;5074609;28;20180;-77
2023/10/19 10:03:47;;;;;;;0.10;0.10;;;20.00;99.90;;;;;;5077050;28;19943;-76
2023/10/19 10:06:20;;;;;;;0.10;0.10;;;19.90;99.90;;;;;;5077007;28;20024;-75
2023/10/19 10:08:47;;;;;;;0.10;0.10;;;18.70;99.90;;;;;;5077220;28;20016;-81
2023/10/19 10:11:21;;;;;;;0.10;0.10;;;19.80;99.90;;;;;;5077049;28;20020;-75
2023/10/19 10:13:52;;;;;;;0.10;0.10;;;17.50;99.90;;;;;;5077120;28;20024;-78
2023/10/19 10:16:22;;;;;;;0.30;0.30;;;19.80;99.90;;;;;;5077677;28;20024;-75
2023/10/19 10:18:50;;;;;;;0.10;0.10;;;19.80;99.90;;;;;;5078053;28;20051;-75
2023/10/19 10:21:20;;;;;;;0.75;0.75;;;19.80;99.90;;;;;;5060033;28;20021;-75
2023/10/19 10:23:52;;;;;;;0.10;0.10;;;19.60;99.90;;;;;;5077829;28;20529;-75
2023/10/19 10:26:19;;;;;;;0.10;0.10;;;19.50;99.90;;;;;;5076955;28;20040;-77
2023/10/19 10:29:19;;;;;;;0.10;0.10;;;19.40;99.90;;;;;;5077227;28;20032;-75
2023/10/19 10:31:47;;;;;;;0.10;0.10;;;19.40;99.90;;;;;;5013685;28;20343;-77
2023/10/19 10:34:33;;;;;;;0.10;0.10;;;19.40;99.90;;;;;;5013705;28;20662;-78
2023/10/19 10:37:10;;;;;;;0.52;0.52;;;19.40;99.90;;;;;;5003591;28;20054;-74
2023/10/19 10:39:37;;;;;;;0.10;0.10;;;20.10;99.90;;;;;;5013619;28;20028;-76
2023/10/19 10:42:05;;;;;;;0.10;0.10;;;19.60;99.90;;;;;;5014162;28;20410;-74
2023/10/19 10:44:41;;;;;;;0.65;0.65;;;19.70;99.90;;;;;;4997078;28;20472;-75
2023/10/19 10:47:10;;;;;;;0.10;0.10;;;20.20;99.90;;;;;;4996797;28;20026;-75
2023/10/19 10:49:57;;;;;;;0.10;0.10;;;19.80;99.90;;;;;;5013819;28;20428;-75
2023/10/19 10:52:34;;;;;;;0.10;0.10;;;19.90;99.90;;;;;;5013519;28;20543;-79
2023/10/19 10:55:13;;;;;;;0.10;0.10;;;19.90;99.90;;;;;;4996890;28;20804;-75
2023/10/19 10:57:43;;;;;;;0.20;0.20;;;20.00;99.90;;;;;;5004902;28;20290;-74
2023/10/19 11:00:16;;;;;;;0.10;0.10;;;20.00;99.90;;;;;;5013164;28;20250;-75
2023/10/19 11:02:43;;;;;;;;;;;20.00;99.90;;;;;;5013457;28;20420;-74
2023/10/19 11:05:13;;;;;;;0.22;0.22;;;17.50;99.90;;;;;;5013637;28;20600;-75
2023/10/19 11:08:18;;;;;;;0.10;0.10;;;19.90;99.90;;;;;;5017869;28;20072;-75
2023/10/19 11:10:46;;;;;;;0.10;0.10;;;19.80;99.90;;;;;;5076444;28;20028;-77
2023/10/19 11:13:13;;;;;;;0.20;0.20;;;19.80;99.90;;;;;;5076246;28;20013;-78
2023/10/19 11:15:50;;;;;;;0.10;0.10;;;17.50;99.90;;;;;;5077711;28;20608;-75
2023/10/19 11:18:33;;;;;;;0.10;0.10;;;19.70;99.90;;;;;;5080178;28;20456;-77
2023/10/19 11:21:00;;;;;;;0.10;0.10;;;19.70;99.90;;;;;;5080386;28;20328;-77
2023/10/19 11:23:56;;;;;;;0.10;0.10;;;19.70;99.90;;;;;;5061319;28;20028;-76
2023/10/19 11:26:27;;;;;;;1.08;1.08;;;19.60;99.90;;;;;;5012718;28;20038;-81
2023/10/19 11:29:09;;;;;;;0.10;0.10;;;19.60;99.90;;;;;;5013746;28;20488;-75
2023/10/19 11:31:39;;;;;;;0.10;0.10;;;19.70;99.90;;;;;;5016970;28;20068;-76
2023/10/19 11:34:05;;;;;;;0.10;0.10;;;19.70;99.90;;;;;;5017315;28;20136;-76
2023/10/19 11:36:31;;;;;;;0.32;0.32;;;19.80;99.90;;;;;;5016827;28;20037;-80
2023/10/19 11:38:57;;;;;;;0.10;0.10;;;20.40;99.90;;;;;;5016486;28;20516;-78
2023/10/19 11:41:23;;;;;;;0.10;0.10;;;20.00;99.90;;;;;;5018542;28;20576;-76
2023/10/19 11:43:49;;;;;;;0.10;0.10;;;20.10;99.90;;;;;;5000939;28;20029;-77
2023/10/19 11:46:22;;;;;;;0.10;0.10;;;20.20;99.90;;;;;;5018016;28;20022;-74
2023/10/19 11:48:48;;;;;;;0.15;0.15;;;20.20;99.90;;;;;;5017461;28;20022;-75
2023/10/19 11:51:15;;;;;;;0.73;0.73;;;20.10;99.90;;;;;;5017535;28;20334;-79
2023/10/19 11:53:42;;;;;;;0.10;0.10;;;20.30;99.90;;;;;;5016757;28;20026;-75
2023/10/19 11:56:10;;;;;;;0.20;0.20;;;20.30;99.90;;;;;;5015049;28;20021;-77
2023/10/19 11:58:41;;;;;;;0.10;0.10;;;20.50;99.90;;;;;;5010757;28;20037;-76
2023/10/19 12:01:08;;;;;;;0.10;0.10;;;20.50;99.90;;;;;;5016018;28;20164;-80
2023/10/19 12:03:40;;;;;;;0.10;0.10;;;20.50;99.90;;;;;;5065702;28;20044;-76
2023/10/19 12:06:10;;;;;;;0.20;0.20;;;20.50;99.90;;;;;;5078830;28;20024;-76
2023/10/19 12:08:37;;;;;;;0.10;0.10;;;19.20;99.90;;;;;;5078678;28;20208;-77
2023/10/19 12:11:04;;;;;;;0.10;0.10;;;20.70;99.90;;;;;;5078713;28;20729;-77
2023/10/19 12:13:31;;;;;;;0.10;0.10;;;19.50;99.90;;;;;;5078683;28;20035;-76
2023/10/19 12:15:57;;;;;;;0.10;0.10;;;20.80;99.90;;;;;;5060183;28;20224;-75
2023/10/19 12:18:26;;;;;;;0.10;0.10;;;20.80;99.90;;;;;;5078958;28;20429;-76
2023/10/19 12:20:56;;;;;;;0.10;0.10;;;18.70;99.90;;;;;;5060757;28;20433;-76
2023/10/19 12:23:26;;;;;;;10.63;3.35;;;21.30;99.90;;;;;;5071012;28;20108;-75
2023/10/19 12:25:52;;;;;;;0.15;0.15;;;21.00;99.90;;;;;;5078441;28;20027;-75
2023/10/19 12:28:19;;;;;;;0.10;0.10;;;21.00;99.90;;;;;;5078647;28;20518;-78
2023/10/19 12:30:45;;;;;;;0.10;0.10;;;21.00;99.90;;;;;;5078931;28;20115;-76
2023/10/19 12:33:13;;;;;;;0.10;0.10;;;21.00;99.90;;;;;;5078485;28;20416;-75
2023/10/19 12:35:49;;;;;;;0.10;0.10;;;20.90;99.90;;;;;;5079108;28;20020;-75
2023/10/19 12:38:16;;;;;;;0.10;0.10;;;20.80;99.90;;;;;;5078622;28;20398;-75
2023/10/19 12:40:46;;;;;;;0.25;0.25;;;21.10;99.90;;;;;;5060165;28;20034;-79
2023/10/19 12:43:18;;;;;;;0.10;0.10;;;20.30;99.90;;;;;;5078652;28;20072;-82
2023/10/19 12:45:50;;;;;;;0.20;0.20;;;19.40;99.90;;;;;;5078924;28;20012;-78
2023/10/19 12:48:17;;;;;;;0.10;0.10;;;20.90;99.90;;;;;;5078403;28;20020;-76
2023/10/19 12:50:43;;;;;;;0.30;0.30;;;20.80;99.90;;;;;;5078301;28;20032;-77
2023/10/19 12:53:09;;;;;;;0.25;0.25;;;20.80;99.90;;;;;;5078235;28;20016;-78
2023/10/19 12:55:37;;;;;;;0.10;0.10;;;20.90;99.90;;;;;;5079749;28;20030;-76
2023/10/19 12:58:08;;;;;;;0.10;0.10;;;20.90;99.90;;;;;;5079448;28;20502;-81
2023/10/19 13:00:43;;;;;;;0.10;0.10;;;21.00;99.90;;;;;;5060736;28;20039;-75
2023/10/19 13:03:13;;;;;;;0.10;0.10;;;20.90;99.90;;;;;;5078667;28;20024;-79
2023/10/19 13:05:40;;;;;;;0.10;0.10;;;20.90;99.90;;;;;;5077898;28;20590;-78
2023/10/19 13:08:15;;;;;;;0.10;0.10;;;21.10;99.90;;;;;;5078406;28;20023;-75
2023/10/19 13:10:45;;;;;;;0.10;0.10;;;20.90;99.90;;;;;;5078658;28;20300;-76
2023/10/19 13:13:13;;;;;;;0.10;0.10;;;20.90;99.90;;;;;;5078093;28;20073;-77
2023/10/19 13:15:41;;;;;;;0.20;0.20;;;22.00;99.90;;;;;;5059753;28;20456;-75
2023/10/19 13:18:09;;;;;;;0.10;0.10;;;21.00;99.90;;;;;;5077555;28;20034;-75
2023/10/19 13:20:37;;;;;;;0.20;0.20;;;20.90;99.90;;;;;;5077942;28;20028;-75
2023/10/19 13:23:04;;;;;;;0.10;0.10;;;20.80;99.90;;;;;;5077248;28;20023;-75
2023/10/19 13:25:47;;;;;;;0.10;0.10;;;20.90;99.90;;;;;;5077480;28;20495;-75
2023/10/19 13:28:14;;;;;;;0.10;0.10;;;20.80;99.90;;;;;;5059005;28;20046;-85
2023/10/19 13:30:42;;;;;;;0.10;0.10;;;20.80;99.90;;;;;;5078392;28;20220;-78
2023/10/19 13:33:10;;;;;;;0.10;0.10;;;19.40;99.90;;;;;;5077519;28;20113;-76
2023/10/19 13:35:40;;;;;;;0.10;0.10;;;20.60;99.90;;;;;;5077415;28;20028;-74
2023/10/19 13:38:11;;;;;;;3.28;2.58;;;20.60;99.90;;;;;;5076894;28;20055;-76